Berkeley, New Jersey
Current Conditions -  °F | °C
As of 4:15 PM on Saturday 22 Nov 2014 (Local Time) from KMJX Reporting Station
Scattered Clouds Scattered Clouds  
Wind Chill: 43°   Ceiling: Unl
Heat Index: 43°   Visibility: 10mi
Dew Point: 18°   Wind: 3mph
Humidity: 36%   Direction: 240°WSW
Pressure: 30.32"   Gusts: NA
Location:  39.9559°N, 74.2574°W
Report Text: KMJX 222115Z AUTO 24003KT 10SM SCT070 SCT090 06/M08 A3032 RMK AO1
Loading
Personal Weather Stations






























Interactive Weather Map New forecast layout! Learn more

10-Day Weather Forecast

Advertisements
Track Severe Weather on mobile